sensor_id;sensor_type;location;lat;lon;timestamp;temperature;humidity
35559;DHT22;21661;50.794;-1.066;2022-09-12T00:00:12;17.70;99.90
35559;DHT22;21661;50.794;-1.066;2022-09-12T00:02:40;17.80;99.90
35559;DHT22;21661;50.794;-1.066;2022-09-12T00:05:06;17.70;99.90
35559;DHT22;21661;50.794;-1.066;2022-09-12T00:07:32;17.70;99.90
35559;DHT22;21661;50.794;-1.066;2022-09-12T00:09:58;17.80;99.90
35559;DHT22;21661;50.794;-1.066;2022-09-12T00:12:24;17.80;99.90
35559;DHT22;21661;50.794;-1.066;2022-09-12T00:14:49;17.70;99.90
35559;DHT22;21661;50.794;-1.066;2022-09-12T00:17:15;17.80;99.90
35559;DHT22;21661;50.794;-1.066;2022-09-12T00:19:41;17.80;99.90
35559;DHT22;21661;50.794;-1.066;2022-09-12T00:22:06;17.80;99.90
35559;DHT22;21661;50.794;-1.066;2022-09-12T00:24:32;17.90;99.90
35559;DHT22;21661;50.794;-1.066;2022-09-12T00:26:58;17.80;99.90
35559;DHT22;21661;50.794;-1.066;2022-09-12T00:29:24;17.80;99.90
35559;DHT22;21661;50.794;-1.066;2022-09-12T00:31:49;17.80;99.90
35559;DHT22;21661;50.794;-1.066;2022-09-12T00:34:15;17.90;99.90
35559;DHT22;21661;50.794;-1.066;2022-09-12T00:36:41;17.80;99.90
35559;DHT22;21661;50.794;-1.066;2022-09-12T00:39:07;17.80;99.90
35559;DHT22;21661;50.794;-1.066;2022-09-12T00:41:38;17.80;99.90
35559;DHT22;21661;50.794;-1.066;2022-09-12T00:52:09;17.70;99.90
35559;DHT22;21661;50.794;-1.066;2022-09-12T00:54:40;17.70;99.90
35559;DHT22;21661;50.794;-1.066;2022-09-12T00:57:06;17.70;99.90
35559;DHT22;21661;50.794;-1.066;2022-09-12T00:59:47;17.70;99.90
35559;DHT22;21661;50.794;-1.066;2022-09-12T01:02:14;17.70;99.90
35559;DHT22;21661;50.794;-1.066;2022-09-12T01:04:41;17.70;99.90
35559;DHT22;21661;50.794;-1.066;2022-09-12T01:07:07;17.70;99.90
35559;DHT22;21661;50.794;-1.066;2022-09-12T01:09:33;17.70;99.90
35559;DHT22;21661;50.794;-1.066;2022-09-12T01:12:01;17.60;99.90
35559;DHT22;21661;50.794;-1.066;2022-09-12T01:14:27;17.60;99.90
35559;DHT22;21661;50.794;-1.066;2022-09-12T01:16:54;17.60;99.90
35559;DHT22;21661;50.794;-1.066;2022-09-12T01:32:07;17.60;99.90
35559;DHT22;21661;50.794;-1.066;2022-09-12T01:34:52;17.70;99.90
35559;DHT22;21661;50.794;-1.066;2022-09-12T01:40:21;17.70;99.90
35559;DHT22;21661;50.794;-1.066;2022-09-12T01:43:07;17.70;99.90
35559;DHT22;21661;50.794;-1.066;2022-09-12T01:45:55;17.70;99.90
35559;DHT22;21661;50.794;-1.066;2022-09-12T01:48:26;17.70;99.90
35559;DHT22;21661;50.794;-1.066;2022-09-12T01:51:15;17.80;99.90
35559;DHT22;21661;50.794;-1.066;2022-09-12T01:53:47;17.80;99.90
35559;DHT22;21661;50.794;-1.066;2022-09-12T01:56:26;17.80;99.90
35559;DHT22;21661;50.794;-1.066;2022-09-12T01:59:14;17.80;99.90
35559;DHT22;21661;50.794;-1.066;2022-09-12T02:02:07;17.80;99.90
35559;DHT22;21661;50.794;-1.066;2022-09-12T02:04:36;17.70;99.90
35559;DHT22;21661;50.794;-1.066;2022-09-12T02:07:32;17.70;99.90
35559;DHT22;21661;50.794;-1.066;2022-09-12T02:12:37;17.70;99.90
35559;DHT22;21661;50.794;-1.066;2022-09-12T02:15:07;17.80;99.90
35559;DHT22;21661;50.794;-1.066;2022-09-12T02:17:40;17.80;99.90
35559;DHT22;21661;50.794;-1.066;2022-09-12T02:20:22;17.80;99.90
35559;DHT22;21661;50.794;-1.066;2022-09-12T02:22:51;17.80;99.90
35559;DHT22;21661;50.794;-1.066;2022-09-12T02:25:19;17.80;99.90
35559;DHT22;21661;50.794;-1.066;2022-09-12T02:27:49;17.80;99.90
35559;DHT22;21661;50.794;-1.066;2022-09-12T02:30:15;17.80;99.90
35559;DHT22;21661;50.794;-1.066;2022-09-12T02:33:14;17.80;99.90
35559;DHT22;21661;50.794;-1.066;2022-09-12T02:35:49;17.80;99.90
35559;DHT22;21661;50.794;-1.066;2022-09-12T02:38:27;17.80;99.90
35559;DHT22;21661;50.794;-1.066;2022-09-12T02:40:54;17.80;99.90
35559;DHT22;21661;50.794;-1.066;2022-09-12T02:43:20;17.80;99.90
35559;DHT22;21661;50.794;-1.066;2022-09-12T02:45:46;17.80;99.90
35559;DHT22;21661;50.794;-1.066;2022-09-12T02:48:21;17.90;99.90
35559;DHT22;21661;50.794;-1.066;2022-09-12T02:50:48;17.90;99.90
35559;DHT22;21661;50.794;-1.066;2022-09-12T02:53:14;18.00;99.90
35559;DHT22;21661;50.794;-1.066;2022-09-12T02:55:41;18.00;99.90
35559;DHT22;21661;50.794;-1.066;2022-09-12T02:58:13;18.00;99.90
35559;DHT22;21661;50.794;-1.066;2022-09-12T03:01:06;18.00;99.90
35559;DHT22;21661;50.794;-1.066;2022-09-12T03:06:50;18.10;99.90
35559;DHT22;21661;50.794;-1.066;2022-09-12T03:20:58;18.20;99.90
35559;DHT22;21661;50.794;-1.066;2022-09-12T03:23:32;18.30;99.90
35559;DHT22;21661;50.794;-1.066;2022-09-12T03:26:39;18.30;99.90
35559;DHT22;21661;50.794;-1.066;2022-09-12T03:28:58;18.30;99.90
35559;DHT22;21661;50.794;-1.066;2022-09-12T03:31:24;18.30;99.90
35559;DHT22;21661;50.794;-1.066;2022-09-12T03:33:50;18.30;99.90
35559;DHT22;21661;50.794;-1.066;2022-09-12T03:36:19;18.30;99.90
35559;DHT22;21661;50.794;-1.066;2022-09-12T03:38:46;18.30;99.90
35559;DHT22;21661;50.794;-1.066;2022-09-12T03:41:12;18.30;99.90
35559;DHT22;21661;50.794;-1.066;2022-09-12T03:43:38;18.30;99.90
35559;DHT22;21661;50.794;-1.066;2022-09-12T03:46:03;18.30;99.90
35559;DHT22;21661;50.794;-1.066;2022-09-12T03:48:29;18.30;99.90
35559;DHT22;21661;50.794;-1.066;2022-09-12T03:51:03;18.30;99.90
35559;DHT22;21661;50.794;-1.066;2022-09-12T03:53:29;18.30;99.90
35559;DHT22;21661;50.794;-1.066;2022-09-12T03:55:55;18.40;99.90
35559;DHT22;21661;50.794;-1.066;2022-09-12T03:58:21;18.40;99.90
35559;DHT22;21661;50.794;-1.066;2022-09-12T04:00:47;18.40;99.90
35559;DHT22;21661;50.794;-1.066;2022-09-12T04:03:12;18.50;99.90
35559;DHT22;21661;50.794;-1.066;2022-09-12T04:05:38;18.50;99.90
35559;DHT22;21661;50.794;-1.066;2022-09-12T04:08:04;18.50;99.90
35559;DHT22;21661;50.794;-1.066;2022-09-12T04:10:30;18.50;99.90
35559;DHT22;21661;50.794;-1.066;2022-09-12T04:12:56;18.60;99.90
35559;DHT22;21661;50.794;-1.066;2022-09-12T04:15:21;18.70;99.90
35559;DHT22;21661;50.794;-1.066;2022-09-12T04:17:47;18.70;99.90
35559;DHT22;21661;50.794;-1.066;2022-09-12T04:20:13;18.70;99.90
35559;DHT22;21661;50.794;-1.066;2022-09-12T04:22:39;18.70;99.90
35559;DHT22;21661;50.794;-1.066;2022-09-12T04:25:05;18.80;99.90
35559;DHT22;21661;50.794;-1.066;2022-09-12T04:27:31;18.80;99.90
35559;DHT22;21661;50.794;-1.066;2022-09-12T04:29:57;18.80;99.90
35559;DHT22;21661;50.794;-1.066;2022-09-12T04:32:23;18.80;99.90
35559;DHT22;21661;50.794;-1.066;2022-09-12T04:34:49;18.70;99.90
35559;DHT22;21661;50.794;-1.066;2022-09-12T04:37:16;18.80;99.90
35559;DHT22;21661;50.794;-1.066;2022-09-12T04:39:42;18.80;99.90
35559;DHT22;21661;50.794;-1.066;2022-09-12T04:42:08;18.80;99.90
35559;DHT22;21661;50.794;-1.066;2022-09-12T04:44:33;18.80;99.90
35559;DHT22;21661;50.794;-1.066;2022-09-12T04:46:59;18.80;99.90
35559;DHT22;21661;50.794;-1.066;2022-09-12T04:49:24;18.80;99.90
35559;DHT22;21661;50.794;-1.066;2022-09-12T04:51:52;18.90;99.90
35559;DHT22;21661;50.794;-1.066;2022-09-12T04:54:19;18.90;99.90
35559;DHT22;21661;50.794;-1.066;2022-09-12T04:56:46;18.80;99.90
35559;DHT22;21661;50.794;-1.066;2022-09-12T04:59:14;18.80;99.90
35559;DHT22;21661;50.794;-1.066;2022-09-12T05:01:40;18.90;99.90
35559;DHT22;21661;50.794;-1.066;2022-09-12T05:04:06;18.80;99.90
35559;DHT22;21661;50.794;-1.066;2022-09-12T05:06:34;18.80;99.90
35559;DHT22;21661;50.794;-1.066;2022-09-12T05:09:02;18.80;99.90
35559;DHT22;21661;50.794;-1.066;2022-09-12T05:11:31;18.80;99.90
35559;DHT22;21661;50.794;-1.066;2022-09-12T05:13:58;18.80;99.90
35559;DHT22;21661;50.794;-1.066;2022-09-12T05:16:25;18.80;99.90
35559;DHT22;21661;50.794;-1.066;2022-09-12T05:18:51;18.80;99.90
35559;DHT22;21661;50.794;-1.066;2022-09-12T05:21:19;18.80;99.90
35559;DHT22;21661;50.794;-1.066;2022-09-12T05:23:46;18.80;99.90
35559;DHT22;21661;50.794;-1.066;2022-09-12T05:26:15;18.80;99.90
35559;DHT22;21661;50.794;-1.066;2022-09-12T05:28:41;18.80;99.90
35559;DHT22;21661;50.794;-1.066;2022-09-12T05:33:36;18.80;99.90
35559;DHT22;21661;50.794;-1.066;2022-09-12T05:36:04;18.80;99.90
35559;DHT22;21661;50.794;-1.066;2022-09-12T05:38:33;18.80;99.90
35559;DHT22;21661;50.794;-1.066;2022-09-12T05:41:07;18.90;99.90
35559;DHT22;21661;50.794;-1.066;2022-09-12T05:43:34;18.90;99.90
35559;DHT22;21661;50.794;-1.066;2022-09-12T05:46:05;18.90;99.90
35559;DHT22;21661;50.794;-1.066;2022-09-12T05:48:33;18.80;99.90
35559;DHT22;21661;50.794;-1.066;2022-09-12T05:51:05;18.80;99.90
35559;DHT22;21661;50.794;-1.066;2022-09-12T05:53:37;18.80;99.90
35559;DHT22;21661;50.794;-1.066;2022-09-12T05:56:11;18.80;99.90
35559;DHT22;21661;50.794;-1.066;2022-09-12T05:58:39;18.80;99.90
35559;DHT22;21661;50.794;-1.066;2022-09-12T06:01:11;18.80;99.90
35559;DHT22;21661;50.794;-1.066;2022-09-12T06:03:40;18.80;99.90
35559;DHT22;21661;50.794;-1.066;2022-09-12T06:06:07;18.80;99.90
35559;DHT22;21661;50.794;-1.066;2022-09-12T06:08:33;18.70;99.90
35559;DHT22;21661;50.794;-1.066;2022-09-12T06:11:03;18.80;99.90
35559;DHT22;21661;50.794;-1.066;2022-09-12T06:13:34;18.80;99.90
35559;DHT22;21661;50.794;-1.066;2022-09-12T06:16:21;18.80;99.90
35559;DHT22;21661;50.794;-1.066;2022-09-12T06:18:48;18.80;99.90
35559;DHT22;21661;50.794;-1.066;2022-09-12T06:21:15;18.90;99.90
35559;DHT22;21661;50.794;-1.066;2022-09-12T06:23:41;18.90;99.90
35559;DHT22;21661;50.794;-1.066;2022-09-12T06:26:09;18.90;99.90
35559;DHT22;21661;50.794;-1.066;2022-09-12T06:28:37;18.90;99.90
35559;DHT22;21661;50.794;-1.066;2022-09-12T06:31:09;19.00;99.90
35559;DHT22;21661;50.794;-1.066;2022-09-12T06:33:38;19.10;99.90
35559;DHT22;21661;50.794;-1.066;2022-09-12T06:36:10;19.10;99.90
35559;DHT22;21661;50.794;-1.066;2022-09-12T06:38:36;19.10;99.90
35559;DHT22;21661;50.794;-1.066;2022-09-12T06:41:10;19.10;99.90
35559;DHT22;21661;50.794;-1.066;2022-09-12T06:43:37;19.10;99.90
35559;DHT22;21661;50.794;-1.066;2022-09-12T06:46:04;19.20;99.90
35559;DHT22;21661;50.794;-1.066;2022-09-12T06:48:30;19.10;99.90
35559;DHT22;21661;50.794;-1.066;2022-09-12T06:51:01;19.20;99.90
35559;DHT22;21661;50.794;-1.066;2022-09-12T06:53:27;19.20;99.90
35559;DHT22;21661;50.794;-1.066;2022-09-12T06:56:01;19.20;99.90
35559;DHT22;21661;50.794;-1.066;2022-09-12T06:58:28;19.20;99.90
35559;DHT22;21661;50.794;-1.066;2022-09-12T07:01:17;19.20;99.90
35559;DHT22;21661;50.794;-1.066;2022-09-12T07:03:50;19.20;99.90
35559;DHT22;21661;50.794;-1.066;2022-09-12T07:06:18;19.30;99.90
35559;DHT22;21661;50.794;-1.066;2022-09-12T07:08:45;19.40;99.90
35559;DHT22;21661;50.794;-1.066;2022-09-12T07:11:20;19.40;99.90
35559;DHT22;21661;50.794;-1.066;2022-09-12T07:13:49;19.40;99.90
35559;DHT22;21661;50.794;-1.066;2022-09-12T07:16:15;19.40;99.90
35559;DHT22;21661;50.794;-1.066;2022-09-12T07:18:41;19.50;99.90
35559;DHT22;21661;50.794;-1.066;2022-09-12T07:21:12;19.50;99.90
35559;DHT22;21661;50.794;-1.066;2022-09-12T07:23:38;19.40;99.90
35559;DHT22;21661;50.794;-1.066;2022-09-12T07:26:05;19.50;99.90
35559;DHT22;21661;50.794;-1.066;2022-09-12T07:28:32;19.60;99.90
35559;DHT22;21661;50.794;-1.066;2022-09-12T07:31:07;19.60;99.90
35559;DHT22;21661;50.794;-1.066;2022-09-12T07:33:34;19.60;99.90
35559;DHT22;21661;50.794;-1.066;2022-09-12T07:36:22;19.70;99.90
35559;DHT22;21661;50.794;-1.066;2022-09-12T07:38:47;19.70;99.90
35559;DHT22;21661;50.794;-1.066;2022-09-12T07:41:15;19.70;99.90
35559;DHT22;21661;50.794;-1.066;2022-09-12T07:43:41;19.80;99.90
35559;DHT22;21661;50.794;-1.066;2022-09-12T07:46:07;19.80;99.90
35559;DHT22;21661;50.794;-1.066;2022-09-12T07:48:34;19.80;99.90
35559;DHT22;21661;50.794;-1.066;2022-09-12T07:51:01;19.90;99.90
35559;DHT22;21661;50.794;-1.066;2022-09-12T07:53:34;19.90;99.90
35559;DHT22;21661;50.794;-1.066;2022-09-12T07:56:02;19.90;99.90
35559;DHT22;21661;50.794;-1.066;2022-09-12T07:58:29;19.90;99.90
35559;DHT22;21661;50.794;-1.066;2022-09-12T08:01:02;20.00;99.90
35559;DHT22;21661;50.794;-1.066;2022-09-12T08:03:28;20.00;99.90
35559;DHT22;21661;50.794;-1.066;2022-09-12T08:05:53;20.00;99.90
35559;DHT22;21661;50.794;-1.066;2022-09-12T08:08:19;20.00;99.90
35559;DHT22;21661;50.794;-1.066;2022-09-12T08:10:45;20.00;99.90
35559;DHT22;21661;50.794;-1.066;2022-09-12T08:13:10;20.10;99.90
35559;DHT22;21661;50.794;-1.066;2022-09-12T08:15:36;20.00;99.90
35559;DHT22;21661;50.794;-1.066;2022-09-12T08:18:02;20.10;99.90
35559;DHT22;21661;50.794;-1.066;2022-09-12T08:20:27;20.10;99.90
35559;DHT22;21661;50.794;-1.066;2022-09-12T08:22:53;20.10;99.90
35559;DHT22;21661;50.794;-1.066;2022-09-12T08:25:18;20.10;99.90
35559;DHT22;21661;50.794;-1.066;2022-09-12T08:27:44;20.10;99.90
35559;DHT22;21661;50.794;-1.066;2022-09-12T08:30:11;20.10;99.90
35559;DHT22;21661;50.794;-1.066;2022-09-12T08:32:37;20.10;99.90
35559;DHT22;21661;50.794;-1.066;2022-09-12T08:35:03;20.20;99.90
35559;DHT22;21661;50.794;-1.066;2022-09-12T08:37:30;20.10;99.90
35559;DHT22;21661;50.794;-1.066;2022-09-12T08:39:56;20.10;99.90
35559;DHT22;21661;50.794;-1.066;2022-09-12T08:42:46;20.10;99.90
35559;DHT22;21661;50.794;-1.066;2022-09-12T08:45:56;20.20;99.90
35559;DHT22;21661;50.794;-1.066;2022-09-12T08:48:13;20.20;99.90
35559;DHT22;21661;50.794;-1.066;2022-09-12T08:50:39;20.30;99.90
35559;DHT22;21661;50.794;-1.066;2022-09-12T08:53:20;20.30;99.90
35559;DHT22;21661;50.794;-1.066;2022-09-12T08:55:57;20.40;99.90
35559;DHT22;21661;50.794;-1.066;2022-09-12T08:58:25;20.50;99.90
35559;DHT22;21661;50.794;-1.066;2022-09-12T09:07:13;20.70;99.90
35559;DHT22;21661;50.794;-1.066;2022-09-12T09:09:53;20.70;99.90
35559;DHT22;21661;50.794;-1.066;2022-09-12T09:18:17;20.80;99.90
35559;DHT22;21661;50.794;-1.066;2022-09-12T09:20:51;20.80;99.90
35559;DHT22;21661;50.794;-1.066;2022-09-12T09:23:30;20.80;99.90
35559;DHT22;21661;50.794;-1.066;2022-09-12T09:26:05;20.80;99.90
35559;DHT22;21661;50.794;-1.066;2022-09-12T09:31:21;20.90;99.90
35559;DHT22;21661;50.794;-1.066;2022-09-12T09:33:53;20.90;99.90
35559;DHT22;21661;50.794;-1.066;2022-09-12T09:36:29;20.90;99.90
35559;DHT22;21661;50.794;-1.066;2022-09-12T09:39:03;21.00;99.90
35559;DHT22;21661;50.794;-1.066;2022-09-12T09:41:55;21.00;99.90
35559;DHT22;21661;50.794;-1.066;2022-09-12T09:44:27;21.00;99.90
35559;DHT22;21661;50.794;-1.066;2022-09-12T09:46:54;21.10;99.90
35559;DHT22;21661;50.794;-1.066;2022-09-12T09:49:25;21.10;99.90
35559;DHT22;21661;50.794;-1.066;2022-09-12T09:51:51;21.20;99.90
35559;DHT22;21661;50.794;-1.066;2022-09-12T09:54:21;21.30;99.90
35559;DHT22;21661;50.794;-1.066;2022-09-12T09:56:48;21.30;99.90
35559;DHT22;21661;50.794;-1.066;2022-09-12T09:59:27;21.40;99.90
35559;DHT22;21661;50.794;-1.066;2022-09-12T10:02:08;21.40;99.90
35559;DHT22;21661;50.794;-1.066;2022-09-12T10:04:53;21.40;99.90
35559;DHT22;21661;50.794;-1.066;2022-09-12T10:07:20;21.50;99.90
35559;DHT22;21661;50.794;-1.066;2022-09-12T10:10:15;21.50;99.90
35559;DHT22;21661;50.794;-1.066;2022-09-12T10:12:42;21.50;99.90
35559;DHT22;21661;50.794;-1.066;2022-09-12T10:15:20;21.60;99.90
35559;DHT22;21661;50.794;-1.066;2022-09-12T10:17:50;21.70;99.90
35559;DHT22;21661;50.794;-1.066;2022-09-12T10:20:39;21.70;99.90
35559;DHT22;21661;50.794;-1.066;2022-09-12T10:23:29;21.70;99.90
35559;DHT22;21661;50.794;-1.066;2022-09-12T10:25:59;21.90;99.90
35559;DHT22;21661;50.794;-1.066;2022-09-12T10:28:40;21.90;99.90
35559;DHT22;21661;50.794;-1.066;2022-09-12T10:31:10;21.80;99.90
35559;DHT22;21661;50.794;-1.066;2022-09-12T10:33:44;21.70;99.90
35559;DHT22;21661;50.794;-1.066;2022-09-12T10:36:12;21.60;99.90
35559;DHT22;21661;50.794;-1.066;2022-09-12T10:38:38;21.50;99.90
35559;DHT22;21661;50.794;-1.066;2022-09-12T10:41:06;21.50;99.90
35559;DHT22;21661;50.794;-1.066;2022-09-12T10:48:41;21.50;99.90
35559;DHT22;21661;50.794;-1.066;2022-09-12T10:51:28;21.40;99.90
35559;DHT22;21661;50.794;-1.066;2022-09-12T10:53:58;21.50;99.90
35559;DHT22;21661;50.794;-1.066;2022-09-12T10:56:33;21.40;99.90
35559;DHT22;21661;50.794;-1.066;2022-09-12T10:59:29;21.50;99.90
35559;DHT22;21661;50.794;-1.066;2022-09-12T11:02:26;21.50;99.90
35559;DHT22;21661;50.794;-1.066;2022-09-12T11:07:34;21.60;99.90
35559;DHT22;21661;50.794;-1.066;2022-09-12T11:10:17;21.60;99.90
35559;DHT22;21661;50.794;-1.066;2022-09-12T11:29:46;21.80;99.90
35559;DHT22;21661;50.794;-1.066;2022-09-12T11:46:34;21.80;99.90
35559;DHT22;21661;50.794;-1.066;2022-09-12T11:51:36;22.00;99.90
35559;DHT22;21661;50.794;-1.066;2022-09-12T11:54:20;22.00;99.90
35559;DHT22;21661;50.794;-1.066;2022-09-12T11:56:50;21.90;99.90
35559;DHT22;21661;50.794;-1.066;2022-09-12T12:01:56;22.10;99.90
35559;DHT22;21661;50.794;-1.066;2022-09-12T12:04:36;22.10;99.90
35559;DHT22;21661;50.794;-1.066;2022-09-12T12:07:06;22.20;99.90
35559;DHT22;21661;50.794;-1.066;2022-09-12T12:09:33;22.20;99.90
35559;DHT22;21661;50.794;-1.066;2022-09-12T12:12:05;22.30;99.90
35559;DHT22;21661;50.794;-1.066;2022-09-12T12:14:40;22.30;99.90
35559;DHT22;21661;50.794;-1.066;2022-09-12T12:17:18;22.30;99.90
35559;DHT22;21661;50.794;-1.066;2022-09-12T12:19:46;22.30;99.90
35559;DHT22;21661;50.794;-1.066;2022-09-12T12:22:23;22.40;99.90
35559;DHT22;21661;50.794;-1.066;2022-09-12T12:27:53;22.30;99.90
35559;DHT22;21661;50.794;-1.066;2022-09-12T12:33:03;22.40;99.90
35559;DHT22;21661;50.794;-1.066;2022-09-12T12:35:44;22.40;99.90
35559;DHT22;21661;50.794;-1.066;2022-09-12T12:38:32;22.40;99.90
35559;DHT22;21661;50.794;-1.066;2022-09-12T12:43:47;22.50;99.90
35559;DHT22;21661;50.794;-1.066;2022-09-12T12:46:20;22.70;99.90
35559;DHT22;21661;50.794;-1.066;2022-09-12T12:48:50;22.60;99.90
35559;DHT22;21661;50.794;-1.066;2022-09-12T12:54:04;22.60;99.90
35559;DHT22;21661;50.794;-1.066;2022-09-12T12:56:39;22.60;99.90
35559;DHT22;21661;50.794;-1.066;2022-09-12T12:59:18;22.50;99.90
35559;DHT22;21661;50.794;-1.066;2022-09-12T13:01:50;22.40;99.90
35559;DHT22;21661;50.794;-1.066;2022-09-12T13:04:20;22.40;99.90
35559;DHT22;21661;50.794;-1.066;2022-09-12T13:07:05;22.20;99.90
35559;DHT22;21661;50.794;-1.066;2022-09-12T13:09:45;22.30;99.90
35559;DHT22;21661;50.794;-1.066;2022-09-12T13:12:19;22.30;99.90
35559;DHT22;21661;50.794;-1.066;2022-09-12T13:14:47;22.30;99.90
35559;DHT22;21661;50.794;-1.066;2022-09-12T13:22:43;22.60;99.90
35559;DHT22;21661;50.794;-1.066;2022-09-12T13:25:30;22.60;99.90
35559;DHT22;21661;50.794;-1.066;2022-09-12T13:30:41;22.80;99.90
35559;DHT22;21661;50.794;-1.066;2022-09-12T13:33:18;22.80;99.90
35559;DHT22;21661;50.794;-1.066;2022-09-12T13:44:03;22.70;99.90
35559;DHT22;21661;50.794;-1.066;2022-09-12T13:46:34;22.60;99.90
35559;DHT22;21661;50.794;-1.066;2022-09-12T13:49:06;22.50;99.90
35559;DHT22;21661;50.794;-1.066;2022-09-12T13:51:34;22.40;99.90
35559;DHT22;21661;50.794;-1.066;2022-09-12T13:54:02;22.40;99.90
35559;DHT22;21661;50.794;-1.066;2022-09-12T13:56:29;22.40;99.90
35559;DHT22;21661;50.794;-1.066;2022-09-12T13:59:00;22.30;99.90
35559;DHT22;21661;50.794;-1.066;2022-09-12T14:01:41;22.20;99.90
35559;DHT22;21661;50.794;-1.066;2022-09-12T14:04:18;22.20;99.90
35559;DHT22;21661;50.794;-1.066;2022-09-12T14:07:23;22.20;99.90
35559;DHT22;21661;50.794;-1.066;2022-09-12T14:10:00;22.20;99.90
35559;DHT22;21661;50.794;-1.066;2022-09-12T14:12:33;22.20;99.90
35559;DHT22;21661;50.794;-1.066;2022-09-12T14:15:00;22.20;99.90
35559;DHT22;21661;50.794;-1.066;2022-09-12T14:17:27;22.00;99.90
35559;DHT22;21661;50.794;-1.066;2022-09-12T14:20:01;21.90;99.90
35559;DHT22;21661;50.794;-1.066;2022-09-12T14:22:27;21.80;99.90
35559;DHT22;21661;50.794;-1.066;2022-09-12T14:24:55;21.80;99.90
35559;DHT22;21661;50.794;-1.066;2022-09-12T14:27:31;21.70;99.90
35559;DHT22;21661;50.794;-1.066;2022-09-12T14:30:07;21.70;99.90
35559;DHT22;21661;50.794;-1.066;2022-09-12T14:32:34;21.60;99.90
35559;DHT22;21661;50.794;-1.066;2022-09-12T14:35:04;21.60;99.90
35559;DHT22;21661;50.794;-1.066;2022-09-12T14:37:30;21.60;99.90
35559;DHT22;21661;50.794;-1.066;2022-09-12T14:39:56;21.50;99.90
35559;DHT22;21661;50.794;-1.066;2022-09-12T14:42:25;21.40;99.90
35559;DHT22;21661;50.794;-1.066;2022-09-12T14:45:03;21.40;99.90
35559;DHT22;21661;50.794;-1.066;2022-09-12T14:47:41;21.30;99.90
35559;DHT22;21661;50.794;-1.066;2022-09-12T14:50:24;21.20;99.90
35559;DHT22;21661;50.794;-1.066;2022-09-12T14:53:09;21.10;99.90
35559;DHT22;21661;50.794;-1.066;2022-09-12T14:55:50;21.10;99.90
35559;DHT22;21661;50.794;-1.066;2022-09-12T15:03:27;20.90;99.90
35559;DHT22;21661;50.794;-1.066;2022-09-12T15:05:54;21.00;99.90
35559;DHT22;21661;50.794;-1.066;2022-09-12T15:08:19;20.90;99.90
35559;DHT22;21661;50.794;-1.066;2022-09-12T15:10:46;20.90;99.90
35559;DHT22;21661;50.794;-1.066;2022-09-12T15:13:15;20.90;99.90
35559;DHT22;21661;50.794;-1.066;2022-09-12T15:15:45;20.90;99.90
35559;DHT22;21661;50.794;-1.066;2022-09-12T15:18:11;20.90;99.90
35559;DHT22;21661;50.794;-1.066;2022-09-12T15:20:40;20.90;99.90
35559;DHT22;21661;50.794;-1.066;2022-09-12T15:23:12;21.00;99.90
35559;DHT22;21661;50.794;-1.066;2022-09-12T15:25:39;21.10;99.90
35559;DHT22;21661;50.794;-1.066;2022-09-12T15:28:14;21.20;99.90
35559;DHT22;21661;50.794;-1.066;2022-09-12T15:30:40;21.40;99.90
35559;DHT22;21661;50.794;-1.066;2022-09-12T15:33:07;21.40;99.90
35559;DHT22;21661;50.794;-1.066;2022-09-12T15:35:34;21.50;99.90
35559;DHT22;21661;50.794;-1.066;2022-09-12T15:37:59;21.50;99.90
35559;DHT22;21661;50.794;-1.066;2022-09-12T15:40:25;21.60;99.90
35559;DHT22;21661;50.794;-1.066;2022-09-12T15:42:51;21.70;99.90
35559;DHT22;21661;50.794;-1.066;2022-09-12T15:45:26;21.70;99.90
35559;DHT22;21661;50.794;-1.066;2022-09-12T15:47:54;21.80;99.90
35559;DHT22;21661;50.794;-1.066;2022-09-12T15:50:20;21.80;99.90
35559;DHT22;21661;50.794;-1.066;2022-09-12T15:52:45;21.80;99.90
35559;DHT22;21661;50.794;-1.066;2022-09-12T15:55:18;21.80;99.90
35559;DHT22;21661;50.794;-1.066;2022-09-12T15:57:43;21.80;99.90
35559;DHT22;21661;50.794;-1.066;2022-09-12T16:00:11;21.80;99.90
35559;DHT22;21661;50.794;-1.066;2022-09-12T16:02:37;21.80;99.90
35559;DHT22;21661;50.794;-1.066;2022-09-12T16:05:03;21.80;99.90
35559;DHT22;21661;50.794;-1.066;2022-09-12T16:07:29;21.80;99.90
35559;DHT22;21661;50.794;-1.066;2022-09-12T16:09:55;21.80;99.90
35559;DHT22;21661;50.794;-1.066;2022-09-12T16:12:21;21.80;99.90
35559;DHT22;21661;50.794;-1.066;2022-09-12T16:14:46;21.80;99.90
35559;DHT22;21661;50.794;-1.066;2022-09-12T16:17:12;21.90;99.90
35559;DHT22;21661;50.794;-1.066;2022-09-12T16:19:38;21.90;99.90
35559;DHT22;21661;50.794;-1.066;2022-09-12T16:22:03;21.80;99.90
35559;DHT22;21661;50.794;-1.066;2022-09-12T16:24:29;21.80;99.90
35559;DHT22;21661;50.794;-1.066;2022-09-12T16:26:55;21.70;99.90
35559;DHT22;21661;50.794;-1.066;2022-09-12T16:29:21;21.60;99.90
35559;DHT22;21661;50.794;-1.066;2022-09-12T16:31:46;21.50;99.90
35559;DHT22;21661;50.794;-1.066;2022-09-12T16:34:15;21.50;99.90
35559;DHT22;21661;50.794;-1.066;2022-09-12T16:36:41;21.40;99.90
35559;DHT22;21661;50.794;-1.066;2022-09-12T16:39:09;21.40;99.90
35559;DHT22;21661;50.794;-1.066;2022-09-12T16:41:35;21.40;99.90
35559;DHT22;21661;50.794;-1.066;2022-09-12T16:44:01;21.30;99.90
35559;DHT22;21661;50.794;-1.066;2022-09-12T16:46:27;21.30;99.90
35559;DHT22;21661;50.794;-1.066;2022-09-12T16:48:57;21.30;99.90
35559;DHT22;21661;50.794;-1.066;2022-09-12T16:51:29;21.30;99.90
35559;DHT22;21661;50.794;-1.066;2022-09-12T16:53:55;21.30;99.90
35559;DHT22;21661;50.794;-1.066;2022-09-12T16:56:21;21.20;99.90
35559;DHT22;21661;50.794;-1.066;2022-09-12T16:58:47;21.20;99.90
35559;DHT22;21661;50.794;-1.066;2022-09-12T17:01:16;21.10;99.90
35559;DHT22;21661;50.794;-1.066;2022-09-12T17:03:42;21.10;99.90
35559;DHT22;21661;50.794;-1.066;2022-09-12T17:06:08;21.00;99.90
35559;DHT22;21661;50.794;-1.066;2022-09-12T17:08:36;21.00;99.90
35559;DHT22;21661;50.794;-1.066;2022-09-12T17:11:05;20.90;99.90
35559;DHT22;21661;50.794;-1.066;2022-09-12T17:13:31;20.90;99.90
35559;DHT22;21661;50.794;-1.066;2022-09-12T17:15:57;20.80;99.90
35559;DHT22;21661;50.794;-1.066;2022-09-12T17:18:22;20.80;99.90
35559;DHT22;21661;50.794;-1.066;2022-09-12T17:20:49;20.80;99.90
35559;DHT22;21661;50.794;-1.066;2022-09-12T17:23:14;20.70;99.90
35559;DHT22;21661;50.794;-1.066;2022-09-12T17:25:44;20.70;99.90
35559;DHT22;21661;50.794;-1.066;2022-09-12T17:28:09;20.60;99.90
35559;DHT22;21661;50.794;-1.066;2022-09-12T17:30:35;20.60;99.90
35559;DHT22;21661;50.794;-1.066;2022-09-12T17:33:01;20.60;99.90
35559;DHT22;21661;50.794;-1.066;2022-09-12T17:35:27;20.60;99.90
35559;DHT22;21661;50.794;-1.066;2022-09-12T17:37:53;20.60;99.90
35559;DHT22;21661;50.794;-1.066;2022-09-12T17:40:19;20.60;99.90
35559;DHT22;21661;50.794;-1.066;2022-09-12T17:42:45;20.60;99.90
35559;DHT22;21661;50.794;-1.066;2022-09-12T17:45:11;20.60;99.90
35559;DHT22;21661;50.794;-1.066;2022-09-12T17:47:38;20.60;99.90
35559;DHT22;21661;50.794;-1.066;2022-09-12T17:50:04;20.60;99.90